sensor_id;sensor_type;location;lat;lon;timestamp;P1;durP1;ratioP1;P2;durP2;ratioP2
11263;SDS011;5689;48.798;9.070;2024-01-11T00:00:57;1.20;;;1.20;;
11263;SDS011;5689;48.798;9.070;2024-01-11T00:03:25;1.20;;;1.20;;
11263;SDS011;5689;48.798;9.070;2024-01-11T00:05:53;1.10;;;1.10;;
11263;SDS011;5689;48.798;9.070;2024-01-11T00:08:21;1.20;;;1.20;;
11263;SDS011;5689;48.798;9.070;2024-01-11T00:10:49;1.27;;;1.27;;
11263;SDS011;5689;48.798;9.070;2024-01-11T00:13:18;1.00;;;1.00;;
11263;SDS011;5689;48.798;9.070;2024-01-11T00:15:46;1.37;;;1.37;;
11263;SDS011;5689;48.798;9.070;2024-01-11T00:18:15;1.20;;;1.20;;
11263;SDS011;5689;48.798;9.070;2024-01-11T00:20:44;1.30;;;1.30;;
11263;SDS011;5689;48.798;9.070;2024-01-11T00:23:13;1.20;;;1.20;;
11263;SDS011;5689;48.798;9.070;2024-01-11T00:25:41;1.33;;;1.33;;
11263;SDS011;5689;48.798;9.070;2024-01-11T00:28:09;1.40;;;1.40;;
11263;SDS011;5689;48.798;9.070;2024-01-11T00:30:37;1.20;;;1.20;;
11263;SDS011;5689;48.798;9.070;2024-01-11T00:33:05;1.00;;;1.00;;
11263;SDS011;5689;48.798;9.070;2024-01-11T00:35:36;1.23;;;1.23;;
11263;SDS011;5689;48.798;9.070;2024-01-11T00:38:04;1.10;;;1.10;;
11263;SDS011;5689;48.798;9.070;2024-01-11T00:40:32;1.30;;;1.30;;
11263;SDS011;5689;48.798;9.070;2024-01-11T00:43:00;1.50;;;1.50;;
11263;SDS011;5689;48.798;9.070;2024-01-11T00:45:28;1.10;;;1.10;;
11263;SDS011;5689;48.798;9.070;2024-01-11T00:47:57;1.23;;;1.23;;
11263;SDS011;5689;48.798;9.070;2024-01-11T00:50:25;1.20;;;1.20;;
11263;SDS011;5689;48.798;9.070;2024-01-11T00:52:54;1.20;;;1.20;;
11263;SDS011;5689;48.798;9.070;2024-01-11T00:55:23;1.40;;;1.40;;
11263;SDS011;5689;48.798;9.070;2024-01-11T00:57:51;1.20;;;1.20;;
11263;SDS011;5689;48.798;9.070;2024-01-11T01:00:19;1.10;;;1.10;;
11263;SDS011;5689;48.798;9.070;2024-01-11T01:02:48;1.10;;;1.10;;
11263;SDS011;5689;48.798;9.070;2024-01-11T01:05:16;1.10;;;1.10;;
11263;SDS011;5689;48.798;9.070;2024-01-11T01:07:44;1.00;;;1.00;;
11263;SDS011;5689;48.798;9.070;2024-01-11T01:10:14;1.20;;;1.20;;
11263;SDS011;5689;48.798;9.070;2024-01-11T01:12:42;1.33;;;1.33;;
11263;SDS011;5689;48.798;9.070;2024-01-11T01:15:11;1.37;;;1.37;;
11263;SDS011;5689;48.798;9.070;2024-01-11T01:17:40;1.30;;;1.30;;
11263;SDS011;5689;48.798;9.070;2024-01-11T01:20:09;1.23;;;1.23;;
11263;SDS011;5689;48.798;9.070;2024-01-11T01:22:38;1.13;;;1.13;;
11263;SDS011;5689;48.798;9.070;2024-01-11T01:25:06;1.33;;;1.33;;
11263;SDS011;5689;48.798;9.070;2024-01-11T01:27:36;1.30;;;1.30;;
11263;SDS011;5689;48.798;9.070;2024-01-11T01:30:05;1.30;;;1.30;;
11263;SDS011;5689;48.798;9.070;2024-01-11T01:32:35;1.30;;;1.30;;
11263;SDS011;5689;48.798;9.070;2024-01-11T01:35:03;1.40;;;1.40;;
11263;SDS011;5689;48.798;9.070;2024-01-11T01:37:32;1.37;;;1.37;;
11263;SDS011;5689;48.798;9.070;2024-01-11T01:40:00;1.23;;;1.23;;
11263;SDS011;5689;48.798;9.070;2024-01-11T01:42:29;1.30;;;1.30;;
11263;SDS011;5689;48.798;9.070;2024-01-11T01:44:59;1.10;;;1.10;;
11263;SDS011;5689;48.798;9.070;2024-01-11T01:47:27;1.20;;;1.20;;
11263;SDS011;5689;48.798;9.070;2024-01-11T01:49:55;1.23;;;1.23;;
11263;SDS011;5689;48.798;9.070;2024-01-11T01:52:24;1.20;;;1.20;;
11263;SDS011;5689;48.798;9.070;2024-01-11T01:54:53;1.10;;;1.10;;
11263;SDS011;5689;48.798;9.070;2024-01-11T01:57:22;1.10;;;1.10;;
11263;SDS011;5689;48.798;9.070;2024-01-11T01:59:50;1.30;;;1.30;;
11263;SDS011;5689;48.798;9.070;2024-01-11T02:02:22;1.90;;;1.87;;
11263;SDS011;5689;48.798;9.070;2024-01-11T02:04:50;1.80;;;1.80;;
11263;SDS011;5689;48.798;9.070;2024-01-11T02:07:19;1.53;;;1.53;;
11263;SDS011;5689;48.798;9.070;2024-01-11T02:09:47;1.97;;;1.87;;
11263;SDS011;5689;48.798;9.070;2024-01-11T02:12:16;1.70;;;1.70;;
11263;SDS011;5689;48.798;9.070;2024-01-11T02:14:44;1.67;;;1.67;;
11263;SDS011;5689;48.798;9.070;2024-01-11T02:17:13;2.03;;;1.93;;
11263;SDS011;5689;48.798;9.070;2024-01-11T02:19:43;2.13;;;2.03;;
11263;SDS011;5689;48.798;9.070;2024-01-11T02:22:12;1.70;;;1.70;;
11263;SDS011;5689;48.798;9.070;2024-01-11T02:24:50;1.83;;;1.80;;
11263;SDS011;5689;48.798;9.070;2024-01-11T02:27:19;1.90;;;1.83;;
11263;SDS011;5689;48.798;9.070;2024-01-11T02:29:47;1.60;;;1.60;;
11263;SDS011;5689;48.798;9.070;2024-01-11T02:32:16;1.80;;;1.80;;
11263;SDS011;5689;48.798;9.070;2024-01-11T02:34:44;1.63;;;1.63;;
11263;SDS011;5689;48.798;9.070;2024-01-11T02:37:13;2.10;;;2.00;;
11263;SDS011;5689;48.798;9.070;2024-01-11T02:39:41;1.70;;;1.70;;
11263;SDS011;5689;48.798;9.070;2024-01-11T02:42:11;1.63;;;1.63;;
11263;SDS011;5689;48.798;9.070;2024-01-11T02:44:40;1.60;;;1.60;;
11263;SDS011;5689;48.798;9.070;2024-01-11T02:47:08;2.00;;;1.90;;
11263;SDS011;5689;48.798;9.070;2024-01-11T02:49:36;1.70;;;1.70;;
11263;SDS011;5689;48.798;9.070;2024-01-11T02:52:05;1.70;;;1.70;;
11263;SDS011;5689;48.798;9.070;2024-01-11T02:54:33;2.10;;;2.00;;
11263;SDS011;5689;48.798;9.070;2024-01-11T02:57:02;2.03;;;1.93;;
11263;SDS011;5689;48.798;9.070;2024-01-11T02:59:32;2.00;;;1.90;;
11263;SDS011;5689;48.798;9.070;2024-01-11T03:02:00;1.70;;;1.70;;
11263;SDS011;5689;48.798;9.070;2024-01-11T03:04:28;1.80;;;1.80;;
11263;SDS011;5689;48.798;9.070;2024-01-11T03:06:56;1.80;;;1.80;;
11263;SDS011;5689;48.798;9.070;2024-01-11T03:09:24;2.03;;;1.93;;
11263;SDS011;5689;48.798;9.070;2024-01-11T03:11:53;1.80;;;1.80;;
11263;SDS011;5689;48.798;9.070;2024-01-11T03:14:21;2.13;;;2.03;;
11263;SDS011;5689;48.798;9.070;2024-01-11T03:16:50;2.10;;;2.00;;
11263;SDS011;5689;48.798;9.070;2024-01-11T03:19:18;1.70;;;1.70;;
11263;SDS011;5689;48.798;9.070;2024-01-11T03:21:47;1.70;;;1.70;;
11263;SDS011;5689;48.798;9.070;2024-01-11T03:24:15;1.60;;;1.60;;
11263;SDS011;5689;48.798;9.070;2024-01-11T03:26:43;2.17;;;2.07;;
11263;SDS011;5689;48.798;9.070;2024-01-11T03:29:11;1.80;;;1.80;;
11263;SDS011;5689;48.798;9.070;2024-01-11T03:31:39;1.77;;;1.77;;
11263;SDS011;5689;48.798;9.070;2024-01-11T03:34:10;1.80;;;1.80;;
11263;SDS011;5689;48.798;9.070;2024-01-11T03:36:39;1.67;;;1.67;;
11263;SDS011;5689;48.798;9.070;2024-01-11T03:39:07;2.00;;;1.90;;
11263;SDS011;5689;48.798;9.070;2024-01-11T03:41:35;1.73;;;1.73;;
11263;SDS011;5689;48.798;9.070;2024-01-11T03:44:04;2.10;;;2.00;;
11263;SDS011;5689;48.798;9.070;2024-01-11T03:46:34;2.10;;;2.00;;
11263;SDS011;5689;48.798;9.070;2024-01-11T03:49:02;2.23;;;2.13;;
11263;SDS011;5689;48.798;9.070;2024-01-11T03:51:32;1.80;;;1.80;;
11263;SDS011;5689;48.798;9.070;2024-01-11T03:54:01;1.93;;;1.87;;
11263;SDS011;5689;48.798;9.070;2024-01-11T03:56:29;2.10;;;2.00;;
11263;SDS011;5689;48.798;9.070;2024-01-11T03:58:57;1.80;;;1.80;;
11263;SDS011;5689;48.798;9.070;2024-01-11T04:01:25;2.30;;;2.20;;
11263;SDS011;5689;48.798;9.070;2024-01-11T04:03:53;2.00;;;1.90;;
11263;SDS011;5689;48.798;9.070;2024-01-11T04:06:22;1.60;;;1.60;;
11263;SDS011;5689;48.798;9.070;2024-01-11T04:08:52;2.07;;;1.97;;
11263;SDS011;5689;48.798;9.070;2024-01-11T04:11:21;2.03;;;1.93;;
11263;SDS011;5689;48.798;9.070;2024-01-11T04:13:49;2.43;;;2.33;;
11263;SDS011;5689;48.798;9.070;2024-01-11T04:16:17;2.20;;;2.10;;
11263;SDS011;5689;48.798;9.070;2024-01-11T04:18:45;2.00;;;1.90;;
11263;SDS011;5689;48.798;9.070;2024-01-11T04:21:20;2.47;;;2.37;;
11263;SDS011;5689;48.798;9.070;2024-01-11T04:23:49;2.20;;;2.10;;
11263;SDS011;5689;48.798;9.070;2024-01-11T04:26:19;2.00;;;1.90;;
11263;SDS011;5689;48.798;9.070;2024-01-11T04:28:47;2.30;;;2.20;;
11263;SDS011;5689;48.798;9.070;2024-01-11T04:31:16;2.30;;;2.20;;
11263;SDS011;5689;48.798;9.070;2024-01-11T04:33:45;2.20;;;2.10;;
11263;SDS011;5689;48.798;9.070;2024-01-11T04:36:12;1.93;;;1.87;;
11263;SDS011;5689;48.798;9.070;2024-01-11T04:38:40;2.27;;;2.17;;
11263;SDS011;5689;48.798;9.070;2024-01-11T04:41:10;2.23;;;2.13;;
11263;SDS011;5689;48.798;9.070;2024-01-11T04:43:39;2.20;;;2.10;;
11263;SDS011;5689;48.798;9.070;2024-01-11T04:46:15;1.80;;;1.80;;
11263;SDS011;5689;48.798;9.070;2024-01-11T04:48:44;1.80;;;1.80;;
11263;SDS011;5689;48.798;9.070;2024-01-11T04:51:13;2.07;;;1.97;;
11263;SDS011;5689;48.798;9.070;2024-01-11T04:53:42;2.10;;;2.00;;
11263;SDS011;5689;48.798;9.070;2024-01-11T04:56:13;2.20;;;2.10;;
11263;SDS011;5689;48.798;9.070;2024-01-11T04:58:43;2.10;;;2.00;;
11263;SDS011;5689;48.798;9.070;2024-01-11T05:01:12;2.20;;;2.10;;
11263;SDS011;5689;48.798;9.070;2024-01-11T05:03:41;2.00;;;1.90;;
11263;SDS011;5689;48.798;9.070;2024-01-11T05:06:14;2.27;;;2.17;;
11263;SDS011;5689;48.798;9.070;2024-01-11T05:08:43;1.90;;;1.90;;
11263;SDS011;5689;48.798;9.070;2024-01-11T05:11:17;2.00;;;1.90;;
11263;SDS011;5689;48.798;9.070;2024-01-11T05:13:46;2.20;;;2.10;;
11263;SDS011;5689;48.798;9.070;2024-01-11T05:16:19;1.73;;;1.73;;
11263;SDS011;5689;48.798;9.070;2024-01-11T05:18:47;2.17;;;2.07;;
11263;SDS011;5689;48.798;9.070;2024-01-11T05:21:16;1.90;;;1.83;;
11263;SDS011;5689;48.798;9.070;2024-01-11T05:23:44;1.60;;;1.60;;
11263;SDS011;5689;48.798;9.070;2024-01-11T05:26:13;2.30;;;2.20;;
11263;SDS011;5689;48.798;9.070;2024-01-11T05:28:43;2.07;;;1.97;;
11263;SDS011;5689;48.798;9.070;2024-01-11T05:31:12;2.13;;;2.03;;
11263;SDS011;5689;48.798;9.070;2024-01-11T05:33:41;2.13;;;2.03;;
11263;SDS011;5689;48.798;9.070;2024-01-11T05:36:09;2.10;;;2.00;;
11263;SDS011;5689;48.798;9.070;2024-01-11T05:38:38;2.20;;;2.10;;
11263;SDS011;5689;48.798;9.070;2024-01-11T05:41:07;1.77;;;1.77;;
11263;SDS011;5689;48.798;9.070;2024-01-11T05:43:36;1.93;;;1.90;;
11263;SDS011;5689;48.798;9.070;2024-01-11T05:46:06;2.10;;;2.00;;
11263;SDS011;5689;48.798;9.070;2024-01-11T05:48:35;2.43;;;2.33;;
11263;SDS011;5689;48.798;9.070;2024-01-11T05:51:03;1.70;;;1.70;;
11263;SDS011;5689;48.798;9.070;2024-01-11T05:53:31;2.30;;;2.20;;
11263;SDS011;5689;48.798;9.070;2024-01-11T05:56:01;2.10;;;2.00;;
11263;SDS011;5689;48.798;9.070;2024-01-11T05:58:34;2.33;;;2.23;;
11263;SDS011;5689;48.798;9.070;2024-01-11T06:01:04;2.17;;;2.07;;
11263;SDS011;5689;48.798;9.070;2024-01-11T06:03:33;2.10;;;2.00;;
11263;SDS011;5689;48.798;9.070;2024-01-11T06:06:02;2.10;;;2.00;;
11263;SDS011;5689;48.798;9.070;2024-01-11T06:08:31;2.37;;;2.27;;
11263;SDS011;5689;48.798;9.070;2024-01-11T06:10:59;2.20;;;2.10;;
11263;SDS011;5689;48.798;9.070;2024-01-11T06:13:28;1.90;;;1.83;;
11263;SDS011;5689;48.798;9.070;2024-01-11T06:15:56;2.10;;;2.00;;
11263;SDS011;5689;48.798;9.070;2024-01-11T06:18:24;2.10;;;2.00;;
11263;SDS011;5689;48.798;9.070;2024-01-11T06:20:53;2.10;;;2.00;;
11263;SDS011;5689;48.798;9.070;2024-01-11T06:23:23;1.80;;;1.80;;
11263;SDS011;5689;48.798;9.070;2024-01-11T06:25:53;2.40;;;2.30;;
11263;SDS011;5689;48.798;9.070;2024-01-11T06:28:21;2.00;;;1.90;;
11263;SDS011;5689;48.798;9.070;2024-01-11T06:30:49;2.20;;;2.10;;
11263;SDS011;5689;48.798;9.070;2024-01-11T06:33:17;2.43;;;2.33;;
11263;SDS011;5689;48.798;9.070;2024-01-11T06:35:46;2.27;;;2.17;;
11263;SDS011;5689;48.798;9.070;2024-01-11T06:38:16;2.47;;;2.37;;
11263;SDS011;5689;48.798;9.070;2024-01-11T06:40:44;2.20;;;2.10;;
11263;SDS011;5689;48.798;9.070;2024-01-11T06:43:12;2.37;;;2.27;;
11263;SDS011;5689;48.798;9.070;2024-01-11T06:45:41;2.27;;;2.17;;
11263;SDS011;5689;48.798;9.070;2024-01-11T06:48:10;2.30;;;2.20;;
11263;SDS011;5689;48.798;9.070;2024-01-11T06:50:38;2.23;;;2.13;;
11263;SDS011;5689;48.798;9.070;2024-01-11T06:53:06;2.10;;;2.00;;
11263;SDS011;5689;48.798;9.070;2024-01-11T06:55:36;2.10;;;2.00;;
11263;SDS011;5689;48.798;9.070;2024-01-11T06:58:04;2.23;;;2.13;;
11263;SDS011;5689;48.798;9.070;2024-01-11T07:00:32;2.27;;;2.17;;
11263;SDS011;5689;48.798;9.070;2024-01-11T07:03:00;2.43;;;2.33;;
11263;SDS011;5689;48.798;9.070;2024-01-11T07:05:29;2.33;;;2.23;;
11263;SDS011;5689;48.798;9.070;2024-01-11T07:07:57;2.30;;;2.20;;
11263;SDS011;5689;48.798;9.070;2024-01-11T07:10:25;2.30;;;2.20;;
11263;SDS011;5689;48.798;9.070;2024-01-11T07:12:55;2.10;;;2.00;;
11263;SDS011;5689;48.798;9.070;2024-01-11T07:15:23;2.20;;;2.10;;
11263;SDS011;5689;48.798;9.070;2024-01-11T07:17:51;2.23;;;2.13;;
11263;SDS011;5689;48.798;9.070;2024-01-11T07:20:20;2.00;;;1.90;;
11263;SDS011;5689;48.798;9.070;2024-01-11T07:22:48;2.50;;;2.40;;
11263;SDS011;5689;48.798;9.070;2024-01-11T07:25:16;2.30;;;2.20;;
11263;SDS011;5689;48.798;9.070;2024-01-11T07:27:44;2.30;;;2.20;;
11263;SDS011;5689;48.798;9.070;2024-01-11T07:30:14;2.40;;;2.30;;
11263;SDS011;5689;48.798;9.070;2024-01-11T07:32:43;2.30;;;2.20;;
11263;SDS011;5689;48.798;9.070;2024-01-11T07:35:13;1.73;;;1.73;;
11263;SDS011;5689;48.798;9.070;2024-01-11T07:37:43;2.40;;;2.30;;
11263;SDS011;5689;48.798;9.070;2024-01-11T07:40:11;2.23;;;2.13;;
11263;SDS011;5689;48.798;9.070;2024-01-11T07:42:40;1.80;;;1.80;;
11263;SDS011;5689;48.798;9.070;2024-01-11T07:45:09;2.00;;;1.90;;
11263;SDS011;5689;48.798;9.070;2024-01-11T07:47:39;2.00;;;1.90;;
11263;SDS011;5689;48.798;9.070;2024-01-11T07:50:08;2.03;;;1.93;;
11263;SDS011;5689;48.798;9.070;2024-01-11T07:52:37;2.40;;;2.30;;
11263;SDS011;5689;48.798;9.070;2024-01-11T07:55:05;2.00;;;1.90;;
11263;SDS011;5689;48.798;9.070;2024-01-11T07:57:34;2.10;;;2.00;;
11263;SDS011;5689;48.798;9.070;2024-01-11T08:00:02;2.07;;;1.97;;
11263;SDS011;5689;48.798;9.070;2024-01-11T08:02:42;1.90;;;1.83;;
11263;SDS011;5689;48.798;9.070;2024-01-11T08:05:11;1.70;;;1.70;;
11263;SDS011;5689;48.798;9.070;2024-01-11T08:07:40;2.10;;;2.00;;
11263;SDS011;5689;48.798;9.070;2024-01-11T08:10:08;2.10;;;2.00;;
11263;SDS011;5689;48.798;9.070;2024-01-11T08:12:37;2.10;;;2.00;;
11263;SDS011;5689;48.798;9.070;2024-01-11T08:15:05;2.03;;;1.93;;
11263;SDS011;5689;48.798;9.070;2024-01-11T08:17:37;1.80;;;1.80;;
11263;SDS011;5689;48.798;9.070;2024-01-11T08:20:08;2.23;;;2.13;;
11263;SDS011;5689;48.798;9.070;2024-01-11T08:22:38;1.87;;;1.83;;
11263;SDS011;5689;48.798;9.070;2024-01-11T08:25:07;2.27;;;2.17;;
11263;SDS011;5689;48.798;9.070;2024-01-11T08:27:35;2.20;;;2.10;;
11263;SDS011;5689;48.798;9.070;2024-01-11T08:30:04;1.83;;;1.83;;
11263;SDS011;5689;48.798;9.070;2024-01-11T08:32:34;1.80;;;1.80;;
11263;SDS011;5689;48.798;9.070;2024-01-11T08:35:05;2.03;;;1.93;;
11263;SDS011;5689;48.798;9.070;2024-01-11T08:37:36;1.57;;;1.57;;
11263;SDS011;5689;48.798;9.070;2024-01-11T08:40:05;1.53;;;1.53;;
11263;SDS011;5689;48.798;9.070;2024-01-11T08:42:35;1.77;;;1.77;;
11263;SDS011;5689;48.798;9.070;2024-01-11T08:45:04;1.33;;;1.33;;
11263;SDS011;5689;48.798;9.070;2024-01-11T08:47:34;1.80;;;1.80;;
11263;SDS011;5689;48.798;9.070;2024-01-11T08:50:07;1.43;;;1.43;;
11263;SDS011;5689;48.798;9.070;2024-01-11T08:52:42;1.27;;;1.27;;
11263;SDS011;5689;48.798;9.070;2024-01-11T08:55:11;1.30;;;1.30;;
11263;SDS011;5689;48.798;9.070;2024-01-11T08:57:40;1.20;;;1.20;;
11263;SDS011;5689;48.798;9.070;2024-01-11T09:00:08;1.30;;;1.30;;
11263;SDS011;5689;48.798;9.070;2024-01-11T09:02:37;1.60;;;1.60;;
11263;SDS011;5689;48.798;9.070;2024-01-11T09:05:05;1.40;;;1.40;;
11263;SDS011;5689;48.798;9.070;2024-01-11T09:07:36;1.50;;;1.50;;
11263;SDS011;5689;48.798;9.070;2024-01-11T09:10:05;1.40;;;1.40;;
11263;SDS011;5689;48.798;9.070;2024-01-11T09:12:35;1.57;;;1.57;;
11263;SDS011;5689;48.798;9.070;2024-01-11T09:15:03;1.70;;;1.70;;
11263;SDS011;5689;48.798;9.070;2024-01-11T09:17:32;1.33;;;1.33;;
11263;SDS011;5689;48.798;9.070;2024-01-11T09:20:00;1.70;;;1.70;;
11263;SDS011;5689;48.798;9.070;2024-01-11T09:22:29;1.60;;;1.60;;
11263;SDS011;5689;48.798;9.070;2024-01-11T09:24:58;1.43;;;1.43;;
11263;SDS011;5689;48.798;9.070;2024-01-11T09:27:26;1.40;;;1.40;;
11263;SDS011;5689;48.798;9.070;2024-01-11T09:29:55;1.30;;;1.30;;
11263;SDS011;5689;48.798;9.070;2024-01-11T09:32:22;1.37;;;1.37;;
11263;SDS011;5689;48.798;9.070;2024-01-11T09:34:50;1.20;;;1.20;;
11263;SDS011;5689;48.798;9.070;2024-01-11T09:37:19;1.20;;;1.20;;
11263;SDS011;5689;48.798;9.070;2024-01-11T09:39:48;1.20;;;1.20;;
11263;SDS011;5689;48.798;9.070;2024-01-11T09:42:17;1.27;;;1.27;;
11263;SDS011;5689;48.798;9.070;2024-01-11T09:44:46;1.20;;;1.20;;
11263;SDS011;5689;48.798;9.070;2024-01-11T09:47:16;1.10;;;1.10;;
11263;SDS011;5689;48.798;9.070;2024-01-11T09:49:45;1.10;;;1.10;;
11263;SDS011;5689;48.798;9.070;2024-01-11T09:52:17;1.10;;;1.10;;
11263;SDS011;5689;48.798;9.070;2024-01-11T09:54:48;1.00;;;1.00;;
11263;SDS011;5689;48.798;9.070;2024-01-11T09:57:21;1.30;;;1.30;;
11263;SDS011;5689;48.798;9.070;2024-01-11T09:59:53;1.30;;;1.30;;
11263;SDS011;5689;48.798;9.070;2024-01-11T10:02:22;1.20;;;1.20;;
11263;SDS011;5689;48.798;9.070;2024-01-11T10:04:53;1.20;;;1.20;;
11263;SDS011;5689;48.798;9.070;2024-01-11T10:07:21;1.17;;;1.17;;
11263;SDS011;5689;48.798;9.070;2024-01-11T10:09:51;1.27;;;1.27;;
11263;SDS011;5689;48.798;9.070;2024-01-11T10:12:21;1.10;;;1.10;;
11263;SDS011;5689;48.798;9.070;2024-01-11T10:14:51;0.80;;;0.80;;
11263;SDS011;5689;48.798;9.070;2024-01-11T10:17:19;0.90;;;0.90;;
11263;SDS011;5689;48.798;9.070;2024-01-11T10:19:48;0.80;;;0.80;;
11263;SDS011;5689;48.798;9.070;2024-01-11T10:22:16;0.80;;;0.80;;
11263;SDS011;5689;48.798;9.070;2024-01-11T10:24:45;0.70;;;0.70;;
11263;SDS011;5689;48.798;9.070;2024-01-11T10:27:13;0.70;;;0.70;;
11263;SDS011;5689;48.798;9.070;2024-01-11T10:29:42;0.77;;;0.77;;
11263;SDS011;5689;48.798;9.070;2024-01-11T10:32:11;0.70;;;0.70;;
11263;SDS011;5689;48.798;9.070;2024-01-11T10:34:39;0.60;;;0.60;;
11263;SDS011;5689;48.798;9.070;2024-01-11T10:37:08;0.60;;;0.60;;
11263;SDS011;5689;48.798;9.070;2024-01-11T10:39:38;0.50;;;0.50;;
11263;SDS011;5689;48.798;9.070;2024-01-11T10:42:07;0.40;;;0.40;;
11263;SDS011;5689;48.798;9.070;2024-01-11T10:44:38;0.50;;;0.50;;
11263;SDS011;5689;48.798;9.070;2024-01-11T10:47:11;0.30;;;0.30;;
11263;SDS011;5689;48.798;9.070;2024-01-11T10:49:41;0.20;;;0.20;;
11263;SDS011;5689;48.798;9.070;2024-01-11T10:52:12;0.20;;;0.20;;
11263;SDS011;5689;48.798;9.070;2024-01-11T10:54:41;0.30;;;0.30;;
11263;SDS011;5689;48.798;9.070;2024-01-11T10:57:10;0.30;;;0.30;;
11263;SDS011;5689;48.798;9.070;2024-01-11T10:59:39;0.30;;;0.30;;
11263;SDS011;5689;48.798;9.070;2024-01-11T11:02:09;0.30;;;0.30;;
11263;SDS011;5689;48.798;9.070;2024-01-11T11:04:41;0.40;;;0.40;;
11263;SDS011;5689;48.798;9.070;2024-01-11T11:07:10;0.40;;;0.40;;
11263;SDS011;5689;48.798;9.070;2024-01-11T11:09:41;0.40;;;0.40;;
11263;SDS011;5689;48.798;9.070;2024-01-11T11:12:12;0.50;;;0.50;;
11263;SDS011;5689;48.798;9.070;2024-01-11T11:14:40;0.50;;;0.50;;
11263;SDS011;5689;48.798;9.070;2024-01-11T11:17:12;0.50;;;0.50;;
11263;SDS011;5689;48.798;9.070;2024-01-11T11:19:42;0.40;;;0.40;;
11263;SDS011;5689;48.798;9.070;2024-01-11T11:22:12;0.40;;;0.40;;
11263;SDS011;5689;48.798;9.070;2024-01-11T11:24:41;0.30;;;0.30;;
11263;SDS011;5689;48.798;9.070;2024-01-11T11:27:12;0.22;;;0.22;;
11263;SDS011;5689;48.798;9.070;2024-01-11T11:29:41;0.50;;;0.50;;
11263;SDS011;5689;48.798;9.070;2024-01-11T11:32:15;0.50;;;0.50;;
11263;SDS011;5689;48.798;9.070;2024-01-11T11:34:44;0.50;;;0.50;;
11263;SDS011;5689;48.798;9.070;2024-01-11T11:37:12;0.70;;;0.70;;
11263;SDS011;5689;48.798;9.070;2024-01-11T11:39:49;0.60;;;0.60;;
11263;SDS011;5689;48.798;9.070;2024-01-11T11:42:18;0.60;;;0.60;;
11263;SDS011;5689;48.798;9.070;2024-01-11T11:44:49;0.40;;;0.40;;
11263;SDS011;5689;48.798;9.070;2024-01-11T11:47:20;0.30;;;0.30;;
11263;SDS011;5689;48.798;9.070;2024-01-11T11:49:53;0.30;;;0.30;;
11263;SDS011;5689;48.798;9.070;2024-01-11T11:52:26;0.50;;;0.50;;
11263;SDS011;5689;48.798;9.070;2024-01-11T11:54:55;0.40;;;0.40;;
11263;SDS011;5689;48.798;9.070;2024-01-11T11:57:23;0.50;;;0.50;;
11263;SDS011;5689;48.798;9.070;2024-01-11T11:59:52;0.40;;;0.40;;
11263;SDS011;5689;48.798;9.070;2024-01-11T12:02:24;0.30;;;0.30;;
11263;SDS011;5689;48.798;9.070;2024-01-11T12:04:53;0.20;;;0.20;;
11263;SDS011;5689;48.798;9.070;2024-01-11T12:07:22;0.20;;;0.20;;
11263;SDS011;5689;48.798;9.070;2024-01-11T12:09:51;0.20;;;0.20;;
11263;SDS011;5689;48.798;9.070;2024-01-11T12:12:19;0.20;;;0.20;;
11263;SDS011;5689;48.798;9.070;2024-01-11T12:14:48;0.20;;;0.20;;
11263;SDS011;5689;48.798;9.070;2024-01-11T12:17:16;0.20;;;0.20;;
11263;SDS011;5689;48.798;9.070;2024-01-11T12:19:45;0.20;;;0.20;;
11263;SDS011;5689;48.798;9.070;2024-01-11T12:22:15;0.30;;;0.30;;
11263;SDS011;5689;48.798;9.070;2024-01-11T12:24:44;0.20;;;0.20;;
11263;SDS011;5689;48.798;9.070;2024-01-11T12:27:13;0.20;;;0.20;;
11263;SDS011;5689;48.798;9.070;2024-01-11T12:29:42;0.25;;;0.25;;
11263;SDS011;5689;48.798;9.070;2024-01-11T12:32:14;0.40;;;0.40;;
11263;SDS011;5689;48.798;9.070;2024-01-11T12:34:45;0.40;;;0.40;;
11263;SDS011;5689;48.798;9.070;2024-01-11T12:37:15;0.50;;;0.50;;
11263;SDS011;5689;48.798;9.070;2024-01-11T12:39:43;0.40;;;0.40;;
11263;SDS011;5689;48.798;9.070;2024-01-11T12:42:12;0.40;;;0.40;;
11263;SDS011;5689;48.798;9.070;2024-01-11T12:44:40;0.50;;;0.50;;
11263;SDS011;5689;48.798;9.070;2024-01-11T12:47:09;0.50;;;0.50;;
11263;SDS011;5689;48.798;9.070;2024-01-11T12:49:37;0.60;;;0.60;;
11263;SDS011;5689;48.798;9.070;2024-01-11T12:52:16;0.60;;;0.60;;
11263;SDS011;5689;48.798;9.070;2024-01-11T12:54:45;0.60;;;0.60;;
11263;SDS011;5689;48.798;9.070;2024-01-11T12:57:17;0.70;;;0.70;;
11263;SDS011;5689;48.798;9.070;2024-01-11T12:59:46;0.70;;;0.70;;
11263;SDS011;5689;48.798;9.070;2024-01-11T13:02:14;0.80;;;0.80;;
11263;SDS011;5689;48.798;9.070;2024-01-11T13:04:45;0.80;;;0.80;;
11263;SDS011;5689;48.798;9.070;2024-01-11T13:07:13;0.80;;;0.80;;
11263;SDS011;5689;48.798;9.070;2024-01-11T13:09:43;0.83;;;0.83;;
11263;SDS011;5689;48.798;9.070;2024-01-11T13:12:12;0.80;;;0.80;;
11263;SDS011;5689;48.798;9.070;2024-01-11T13:14:40;0.80;;;0.80;;
11263;SDS011;5689;48.798;9.070;2024-01-11T13:17:08;0.80;;;0.80;;
11263;SDS011;5689;48.798;9.070;2024-01-11T13:19:36;0.70;;;0.70;;
11263;SDS011;5689;48.798;9.070;2024-01-11T13:22:05;0.80;;;0.80;;
11263;SDS011;5689;48.798;9.070;2024-01-11T13:24:33;0.80;;;0.80;;
11263;SDS011;5689;48.798;9.070;2024-01-11T13:27:03;1.00;;;1.00;;
11263;SDS011;5689;48.798;9.070;2024-01-11T13:29:31;1.00;;;1.00;;
11263;SDS011;5689;48.798;9.070;2024-01-11T13:31:59;0.80;;;0.80;;
11263;SDS011;5689;48.798;9.070;2024-01-11T13:34:28;0.80;;;0.80;;
11263;SDS011;5689;48.798;9.070;2024-01-11T13:36:56;0.80;;;0.80;;
11263;SDS011;5689;48.798;9.070;2024-01-11T13:39:26;0.73;;;0.73;;
11263;SDS011;5689;48.798;9.070;2024-01-11T13:41:54;0.70;;;0.70;;
11263;SDS011;5689;48.798;9.070;2024-01-11T13:44:23;0.60;;;0.60;;
11263;SDS011;5689;48.798;9.070;2024-01-11T13:46:52;0.60;;;0.60;;
11263;SDS011;5689;48.798;9.070;2024-01-11T13:49:20;0.50;;;0.50;;
11263;SDS011;5689;48.798;9.070;2024-01-11T13:51:51;0.50;;;0.50;;
11263;SDS011;5689;48.798;9.070;2024-01-11T13:54:19;0.57;;;0.57;;
11263;SDS011;5689;48.798;9.070;2024-01-11T13:56:48;0.50;;;0.50;;
11263;SDS011;5689;48.798;9.070;2024-01-11T13:59:18;0.50;;;0.50;;
11263;SDS011;5689;48.798;9.070;2024-01-11T14:01:47;0.50;;;0.50;;
11263;SDS011;5689;48.798;9.070;2024-01-11T14:04:15;0.50;;;0.50;;
11263;SDS011;5689;48.798;9.070;2024-01-11T14:06:44;0.50;;;0.50;;
11263;SDS011;5689;48.798;9.070;2024-01-11T14:09:12;0.63;;;0.63;;
11263;SDS011;5689;48.798;9.070;2024-01-11T14:11:40;0.70;;;0.70;;
11263;SDS011;5689;48.798;9.070;2024-01-11T14:14:08;0.70;;;0.70;;
11263;SDS011;5689;48.798;9.070;2024-01-11T14:16:36;0.70;;;0.70;;
11263;SDS011;5689;48.798;9.070;2024-01-11T14:19:06;0.80;;;0.80;;
11263;SDS011;5689;48.798;9.070;2024-01-11T14:21:35;0.80;;;0.80;;
11263;SDS011;5689;48.798;9.070;2024-01-11T14:24:03;0.90;;;0.90;;
11263;SDS011;5689;48.798;9.070;2024-01-11T14:26:32;0.90;;;0.90;;
11263;SDS011;5689;48.798;9.070;2024-01-11T14:29:00;0.80;;;0.80;;
11263;SDS011;5689;48.798;9.070;2024-01-11T14:31:29;0.80;;;0.80;;
11263;SDS011;5689;48.798;9.070;2024-01-11T14:33:57;0.80;;;0.80;;
11263;SDS011;5689;48.798;9.070;2024-01-11T14:36:27;0.80;;;0.80;;
11263;SDS011;5689;48.798;9.070;2024-01-11T14:38:56;0.83;;;0.83;;
11263;SDS011;5689;48.798;9.070;2024-01-11T14:41:24;0.90;;;0.90;;
11263;SDS011;5689;48.798;9.070;2024-01-11T14:43:52;0.97;;;0.97;;
11263;SDS011;5689;48.798;9.070;2024-01-11T14:46:21;1.00;;;1.00;;
11263;SDS011;5689;48.798;9.070;2024-01-11T14:48:49;1.00;;;1.00;;
11263;SDS011;5689;48.798;9.070;2024-01-11T14:51:17;1.00;;;1.00;;
11263;SDS011;5689;48.798;9.070;2024-01-11T14:53:46;1.00;;;1.00;;
11263;SDS011;5689;48.798;9.070;2024-01-11T14:56:15;1.07;;;1.07;;
11263;SDS011;5689;48.798;9.070;2024-01-11T14:58:43;1.20;;;1.20;;
11263;SDS011;5689;48.798;9.070;2024-01-11T15:01:11;1.00;;;1.00;;
11263;SDS011;5689;48.798;9.070;2024-01-11T15:03:40;1.07;;;1.07;;
11263;SDS011;5689;48.798;9.070;2024-01-11T15:06:08;1.00;;;1.00;;
11263;SDS011;5689;48.798;9.070;2024-01-11T15:08:37;1.00;;;1.00;;
11263;SDS011;5689;48.798;9.070;2024-01-11T15:11:07;0.90;;;0.90;;